sensor_id;sensor_type;location;lat;lon;timestamp;temperature;humidity
8002;DHT22;4046;48.774;8.732;2023-05-10T00:01:18;20.60;99.00
8002;DHT22;4046;48.774;8.732;2023-05-10T00:03:44;20.60;99.00
8002;DHT22;4046;48.774;8.732;2023-05-10T00:06:10;20.60;99.00
8002;DHT22;4046;48.774;8.732;2023-05-10T00:08:36;20.60;99.00
8002;DHT22;4046;48.774;8.732;2023-05-10T00:11:02;20.60;99.00
8002;DHT22;4046;48.774;8.732;2023-05-10T00:13:28;20.60;98.90
8002;DHT22;4046;48.774;8.732;2023-05-10T00:15:55;20.60;98.90
8002;DHT22;4046;48.774;8.732;2023-05-10T00:18:21;20.60;98.90
8002;DHT22;4046;48.774;8.732;2023-05-10T00:20:47;20.60;99.00
8002;DHT22;4046;48.774;8.732;2023-05-10T00:23:14;20.60;99.00
8002;DHT22;4046;48.774;8.732;2023-05-10T00:25:40;20.60;99.00
8002;DHT22;4046;48.774;8.732;2023-05-10T00:28:07;20.50;98.90
8002;DHT22;4046;48.774;8.732;2023-05-10T00:30:33;20.50;98.90
8002;DHT22;4046;48.774;8.732;2023-05-10T00:32:59;20.50;98.90
8002;DHT22;4046;48.774;8.732;2023-05-10T00:35:26;20.50;98.90
8002;DHT22;4046;48.774;8.732;2023-05-10T00:37:52;20.50;98.90
8002;DHT22;4046;48.774;8.732;2023-05-10T00:40:18;20.50;98.90
8002;DHT22;4046;48.774;8.732;2023-05-10T00:42:45;20.50;98.90
8002;DHT22;4046;48.774;8.732;2023-05-10T00:45:11;20.50;98.90
8002;DHT22;4046;48.774;8.732;2023-05-10T00:47:37;20.50;98.90
8002;DHT22;4046;48.774;8.732;2023-05-10T00:50:04;20.50;98.90
8002;DHT22;4046;48.774;8.732;2023-05-10T00:52:31;20.50;98.90
8002;DHT22;4046;48.774;8.732;2023-05-10T00:54:58;20.50;98.90
8002;DHT22;4046;48.774;8.732;2023-05-10T00:57:24;20.50;98.90
8002;DHT22;4046;48.774;8.732;2023-05-10T00:59:51;20.50;98.90
8002;DHT22;4046;48.774;8.732;2023-05-10T01:02:17;20.50;98.90
8002;DHT22;4046;48.774;8.732;2023-05-10T01:04:44;20.50;98.90
8002;DHT22;4046;48.774;8.732;2023-05-10T01:07:10;20.50;98.90
8002;DHT22;4046;48.774;8.732;2023-05-10T01:09:36;20.50;98.90
8002;DHT22;4046;48.774;8.732;2023-05-10T01:12:03;20.50;98.90
8002;DHT22;4046;48.774;8.732;2023-05-10T01:14:30;20.50;98.90
8002;DHT22;4046;48.774;8.732;2023-05-10T01:16:56;20.50;98.90
8002;DHT22;4046;48.774;8.732;2023-05-10T01:19:28;20.50;98.90
8002;DHT22;4046;48.774;8.732;2023-05-10T01:28:04;20.50;98.90
8002;DHT22;4046;48.774;8.732;2023-05-10T01:36:03;20.50;98.90
8002;DHT22;4046;48.774;8.732;2023-05-10T01:38:47;20.40;98.90
8002;DHT22;4046;48.774;8.732;2023-05-10T01:41:31;20.50;98.90
8002;DHT22;4046;48.774;8.732;2023-05-10T01:44:13;20.50;98.90
8002;DHT22;4046;48.774;8.732;2023-05-10T01:46:42;20.40;98.90
8002;DHT22;4046;48.774;8.732;2023-05-10T01:49:21;20.50;99.20
8002;DHT22;4046;48.774;8.732;2023-05-10T01:51:53;20.40;98.90
8002;DHT22;4046;48.774;8.732;2023-05-10T01:54:21;20.40;98.90
8002;DHT22;4046;48.774;8.732;2023-05-10T01:56:56;20.40;99.20
8002;DHT22;4046;48.774;8.732;2023-05-10T01:59:30;20.40;98.90
8002;DHT22;4046;48.774;8.732;2023-05-10T02:01:58;20.40;98.90
8002;DHT22;4046;48.774;8.732;2023-05-10T02:04:26;20.40;98.80
8002;DHT22;4046;48.774;8.732;2023-05-10T02:06:54;20.40;98.80
8002;DHT22;4046;48.774;8.732;2023-05-10T02:09:21;20.40;98.80
8002;DHT22;4046;48.774;8.732;2023-05-10T02:11:49;20.40;98.80
8002;DHT22;4046;48.774;8.732;2023-05-10T02:14:16;20.40;98.80
8002;DHT22;4046;48.774;8.732;2023-05-10T02:16:43;20.40;98.80
8002;DHT22;4046;48.774;8.732;2023-05-10T02:19:12;20.40;98.80
8002;DHT22;4046;48.774;8.732;2023-05-10T02:21:40;20.40;98.80
8002;DHT22;4046;48.774;8.732;2023-05-10T02:24:08;20.40;98.80
8002;DHT22;4046;48.774;8.732;2023-05-10T02:26:36;20.40;98.80
8002;DHT22;4046;48.774;8.732;2023-05-10T02:29:05;20.40;98.80
8002;DHT22;4046;48.774;8.732;2023-05-10T02:31:33;20.40;98.80
8002;DHT22;4046;48.774;8.732;2023-05-10T02:34:01;20.40;98.80
8002;DHT22;4046;48.774;8.732;2023-05-10T02:36:29;20.40;98.80
8002;DHT22;4046;48.774;8.732;2023-05-10T02:38:56;20.40;98.80
8002;DHT22;4046;48.774;8.732;2023-05-10T02:41:24;20.40;98.80
8002;DHT22;4046;48.774;8.732;2023-05-10T02:43:51;20.40;98.80
8002;DHT22;4046;48.774;8.732;2023-05-10T02:46:19;20.40;98.80
8002;DHT22;4046;48.774;8.732;2023-05-10T02:48:45;20.40;98.80
8002;DHT22;4046;48.774;8.732;2023-05-10T02:51:12;20.40;98.80
8002;DHT22;4046;48.774;8.732;2023-05-10T02:53:43;20.40;98.80
8002;DHT22;4046;48.774;8.732;2023-05-10T02:56:25;20.40;98.80
8002;DHT22;4046;48.774;8.732;2023-05-10T02:58:52;20.40;98.80
8002;DHT22;4046;48.774;8.732;2023-05-10T03:01:18;20.40;98.80
8002;DHT22;4046;48.774;8.732;2023-05-10T03:03:44;20.30;98.80
8002;DHT22;4046;48.774;8.732;2023-05-10T03:06:11;20.30;98.80
8002;DHT22;4046;48.774;8.732;2023-05-10T03:08:37;20.40;98.80
8002;DHT22;4046;48.774;8.732;2023-05-10T03:14:21;20.30;98.70
8002;DHT22;4046;48.774;8.732;2023-05-10T03:16:57;20.40;98.80
8002;DHT22;4046;48.774;8.732;2023-05-10T03:19:32;20.30;99.10
8002;DHT22;4046;48.774;8.732;2023-05-10T03:22:02;20.30;98.80
8002;DHT22;4046;48.774;8.732;2023-05-10T03:24:30;20.30;98.80
8002;DHT22;4046;48.774;8.732;2023-05-10T03:26:59;20.30;98.80
8002;DHT22;4046;48.774;8.732;2023-05-10T03:29:29;20.30;98.70
8002;DHT22;4046;48.774;8.732;2023-05-10T03:31:59;20.30;98.80
8002;DHT22;4046;48.774;8.732;2023-05-10T03:34:26;20.30;98.70
8002;DHT22;4046;48.774;8.732;2023-05-10T03:36:52;20.30;98.70
8002;DHT22;4046;48.774;8.732;2023-05-10T03:39:19;20.30;98.70
8002;DHT22;4046;48.774;8.732;2023-05-10T03:41:46;20.30;98.70
8002;DHT22;4046;48.774;8.732;2023-05-10T03:44:12;20.30;98.70
8002;DHT22;4046;48.774;8.732;2023-05-10T03:46:38;20.30;98.70
8002;DHT22;4046;48.774;8.732;2023-05-10T03:49:04;20.30;98.70
8002;DHT22;4046;48.774;8.732;2023-05-10T03:51:30;20.30;98.70
8002;DHT22;4046;48.774;8.732;2023-05-10T03:53:57;20.30;98.70
8002;DHT22;4046;48.774;8.732;2023-05-10T03:56:23;20.30;98.70
8002;DHT22;4046;48.774;8.732;2023-05-10T03:58:49;20.30;98.70
8002;DHT22;4046;48.774;8.732;2023-05-10T04:01:16;20.30;98.70
8002;DHT22;4046;48.774;8.732;2023-05-10T04:03:42;20.30;98.70
8002;DHT22;4046;48.774;8.732;2023-05-10T04:06:08;20.30;98.70
8002;DHT22;4046;48.774;8.732;2023-05-10T04:08:37;20.30;98.70
8002;DHT22;4046;48.774;8.732;2023-05-10T04:11:07;20.30;98.70
8002;DHT22;4046;48.774;8.732;2023-05-10T04:13:34;20.30;98.70
8002;DHT22;4046;48.774;8.732;2023-05-10T04:16:00;20.30;98.70
8002;DHT22;4046;48.774;8.732;2023-05-10T04:18:27;20.30;98.70
8002;DHT22;4046;48.774;8.732;2023-05-10T04:20:53;20.30;98.70
8002;DHT22;4046;48.774;8.732;2023-05-10T04:23:19;20.30;98.70
8002;DHT22;4046;48.774;8.732;2023-05-10T04:25:45;20.30;98.70
8002;DHT22;4046;48.774;8.732;2023-05-10T04:28:11;20.30;98.70
8002;DHT22;4046;48.774;8.732;2023-05-10T04:30:38;20.30;98.70
8002;DHT22;4046;48.774;8.732;2023-05-10T04:33:04;20.20;98.60
8002;DHT22;4046;48.774;8.732;2023-05-10T04:35:30;20.20;98.60
8002;DHT22;4046;48.774;8.732;2023-05-10T04:37:56;20.30;98.70
8002;DHT22;4046;48.774;8.732;2023-05-10T04:40:22;20.20;98.60
8002;DHT22;4046;48.774;8.732;2023-05-10T04:42:48;20.20;98.60
8002;DHT22;4046;48.774;8.732;2023-05-10T04:45:15;20.20;98.60
8002;DHT22;4046;48.774;8.732;2023-05-10T04:47:41;20.20;98.60
8002;DHT22;4046;48.774;8.732;2023-05-10T04:50:08;20.20;98.70
8002;DHT22;4046;48.774;8.732;2023-05-10T04:52:34;20.20;98.60
8002;DHT22;4046;48.774;8.732;2023-05-10T04:55:00;20.20;98.60
8002;DHT22;4046;48.774;8.732;2023-05-10T04:57:27;20.20;98.60
8002;DHT22;4046;48.774;8.732;2023-05-10T04:59:53;20.20;98.60
8002;DHT22;4046;48.774;8.732;2023-05-10T05:02:19;20.20;98.60
8002;DHT22;4046;48.774;8.732;2023-05-10T05:04:45;20.20;98.60
8002;DHT22;4046;48.774;8.732;2023-05-10T05:07:11;20.20;98.60
8002;DHT22;4046;48.774;8.732;2023-05-10T05:09:37;20.20;98.60
8002;DHT22;4046;48.774;8.732;2023-05-10T05:12:04;20.20;98.60
8002;DHT22;4046;48.774;8.732;2023-05-10T05:14:30;20.20;98.60
8002;DHT22;4046;48.774;8.732;2023-05-10T05:16:56;20.20;98.60
8002;DHT22;4046;48.774;8.732;2023-05-10T05:19:23;20.20;98.60
8002;DHT22;4046;48.774;8.732;2023-05-10T05:21:49;20.20;98.60
8002;DHT22;4046;48.774;8.732;2023-05-10T05:24:15;20.20;98.60
8002;DHT22;4046;48.774;8.732;2023-05-10T05:26:41;20.20;98.50
8002;DHT22;4046;48.774;8.732;2023-05-10T05:29:07;20.20;98.50
8002;DHT22;4046;48.774;8.732;2023-05-10T05:31:34;20.20;98.50
8002;DHT22;4046;48.774;8.732;2023-05-10T05:34:00;20.20;98.50
8002;DHT22;4046;48.774;8.732;2023-05-10T05:36:26;20.20;98.60
8002;DHT22;4046;48.774;8.732;2023-05-10T05:38:52;20.20;98.50
8002;DHT22;4046;48.774;8.732;2023-05-10T05:41:18;20.20;98.60
8002;DHT22;4046;48.774;8.732;2023-05-10T05:43:45;20.20;98.60
8002;DHT22;4046;48.774;8.732;2023-05-10T05:46:11;20.20;98.60
8002;DHT22;4046;48.774;8.732;2023-05-10T05:48:38;20.20;98.60
8002;DHT22;4046;48.774;8.732;2023-05-10T05:51:04;20.20;98.60
8002;DHT22;4046;48.774;8.732;2023-05-10T05:53:30;20.10;98.50
8002;DHT22;4046;48.774;8.732;2023-05-10T05:55:58;20.20;98.60
8002;DHT22;4046;48.774;8.732;2023-05-10T05:58:25;20.10;98.50
8002;DHT22;4046;48.774;8.732;2023-05-10T06:00:51;20.10;98.50
8002;DHT22;4046;48.774;8.732;2023-05-10T06:03:18;20.20;98.60
8002;DHT22;4046;48.774;8.732;2023-05-10T06:05:45;20.20;98.60
8002;DHT22;4046;48.774;8.732;2023-05-10T06:08:11;20.20;98.50
8002;DHT22;4046;48.774;8.732;2023-05-10T06:10:37;20.10;98.50
8002;DHT22;4046;48.774;8.732;2023-05-10T06:13:03;20.20;98.50
8002;DHT22;4046;48.774;8.732;2023-05-10T06:15:29;20.20;98.50
8002;DHT22;4046;48.774;8.732;2023-05-10T06:17:56;20.20;98.50
8002;DHT22;4046;48.774;8.732;2023-05-10T06:20:22;20.20;98.50
8002;DHT22;4046;48.774;8.732;2023-05-10T06:22:48;20.20;98.50
8002;DHT22;4046;48.774;8.732;2023-05-10T06:25:14;20.20;98.50
8002;DHT22;4046;48.774;8.732;2023-05-10T06:27:40;20.20;98.50
8002;DHT22;4046;48.774;8.732;2023-05-10T06:30:07;20.20;98.50
8002;DHT22;4046;48.774;8.732;2023-05-10T06:32:34;20.20;98.50
8002;DHT22;4046;48.774;8.732;2023-05-10T06:35:01;20.20;98.50
8002;DHT22;4046;48.774;8.732;2023-05-10T06:37:27;20.20;98.50
8002;DHT22;4046;48.774;8.732;2023-05-10T06:39:53;20.20;98.50
8002;DHT22;4046;48.774;8.732;2023-05-10T06:42:19;20.20;98.50
8002;DHT22;4046;48.774;8.732;2023-05-10T06:44:45;20.20;98.50
8002;DHT22;4046;48.774;8.732;2023-05-10T06:47:11;20.20;98.50
8002;DHT22;4046;48.774;8.732;2023-05-10T06:49:37;20.20;98.50
8002;DHT22;4046;48.774;8.732;2023-05-10T06:52:04;20.20;98.50
8002;DHT22;4046;48.774;8.732;2023-05-10T06:54:30;20.20;98.40
8002;DHT22;4046;48.774;8.732;2023-05-10T06:56:56;20.20;98.80
8002;DHT22;4046;48.774;8.732;2023-05-10T06:59:22;20.20;98.40
8002;DHT22;4046;48.774;8.732;2023-05-10T07:01:48;20.20;98.40
8002;DHT22;4046;48.774;8.732;2023-05-10T07:04:15;20.20;98.40
8002;DHT22;4046;48.774;8.732;2023-05-10T07:06:41;20.20;98.40
8002;DHT22;4046;48.774;8.732;2023-05-10T07:09:07;20.20;98.40
8002;DHT22;4046;48.774;8.732;2023-05-10T07:11:33;20.20;98.80
8002;DHT22;4046;48.774;8.732;2023-05-10T07:13:59;20.20;98.40
8002;DHT22;4046;48.774;8.732;2023-05-10T07:16:26;20.20;98.40
8002;DHT22;4046;48.774;8.732;2023-05-10T07:18:52;20.20;98.40
8002;DHT22;4046;48.774;8.732;2023-05-10T07:21:19;20.20;98.40
8002;DHT22;4046;48.774;8.732;2023-05-10T07:23:45;20.20;98.40
8002;DHT22;4046;48.774;8.732;2023-05-10T07:26:11;20.30;98.40
8002;DHT22;4046;48.774;8.732;2023-05-10T07:28:38;20.30;98.40
8002;DHT22;4046;48.774;8.732;2023-05-10T07:31:04;20.30;98.40
8002;DHT22;4046;48.774;8.732;2023-05-10T07:33:31;20.30;98.40
8002;DHT22;4046;48.774;8.732;2023-05-10T07:35:57;20.30;98.40
8002;DHT22;4046;48.774;8.732;2023-05-10T07:38:23;20.30;98.40
8002;DHT22;4046;48.774;8.732;2023-05-10T07:40:49;20.30;98.40
8002;DHT22;4046;48.774;8.732;2023-05-10T07:43:16;20.30;98.30
8002;DHT22;4046;48.774;8.732;2023-05-10T07:45:42;20.30;98.30
8002;DHT22;4046;48.774;8.732;2023-05-10T07:48:08;20.30;98.30
8002;DHT22;4046;48.774;8.732;2023-05-10T07:50:34;20.40;98.30
8002;DHT22;4046;48.774;8.732;2023-05-10T07:53:00;20.40;98.30
8002;DHT22;4046;48.774;8.732;2023-05-10T07:55:26;20.40;98.30
8002;DHT22;4046;48.774;8.732;2023-05-10T07:57:53;20.40;98.30
8002;DHT22;4046;48.774;8.732;2023-05-10T08:00:20;20.40;98.30
8002;DHT22;4046;48.774;8.732;2023-05-10T08:02:46;20.40;98.30
8002;DHT22;4046;48.774;8.732;2023-05-10T08:05:13;20.40;98.30
8002;DHT22;4046;48.774;8.732;2023-05-10T08:07:40;20.40;98.30
8002;DHT22;4046;48.774;8.732;2023-05-10T08:10:07;20.40;98.30
8002;DHT22;4046;48.774;8.732;2023-05-10T08:12:33;20.40;98.30
8002;DHT22;4046;48.774;8.732;2023-05-10T08:14:59;20.40;98.20
8002;DHT22;4046;48.774;8.732;2023-05-10T08:17:26;20.40;98.30
8002;DHT22;4046;48.774;8.732;2023-05-10T08:19:52;20.40;98.20
8002;DHT22;4046;48.774;8.732;2023-05-10T08:22:18;20.40;98.20
8002;DHT22;4046;48.774;8.732;2023-05-10T08:24:44;20.40;98.20
8002;DHT22;4046;48.774;8.732;2023-05-10T08:27:11;20.40;98.20
8002;DHT22;4046;48.774;8.732;2023-05-10T08:29:37;20.40;98.20
8002;DHT22;4046;48.774;8.732;2023-05-10T08:32:04;20.40;98.20
8002;DHT22;4046;48.774;8.732;2023-05-10T08:34:30;20.40;98.20
8002;DHT22;4046;48.774;8.732;2023-05-10T08:36:57;20.40;98.20
8002;DHT22;4046;48.774;8.732;2023-05-10T08:39:23;20.40;98.20
8002;DHT22;4046;48.774;8.732;2023-05-10T08:41:51;20.50;98.20
8002;DHT22;4046;48.774;8.732;2023-05-10T08:44:19;20.50;98.10
8002;DHT22;4046;48.774;8.732;2023-05-10T08:46:46;20.50;98.10
8002;DHT22;4046;48.774;8.732;2023-05-10T08:49:17;20.60;98.10
8002;DHT22;4046;48.774;8.732;2023-05-10T08:51:52;20.60;98.10
8002;DHT22;4046;48.774;8.732;2023-05-10T08:54:19;20.60;98.00
8002;DHT22;4046;48.774;8.732;2023-05-10T08:56:47;20.70;98.00
8002;DHT22;4046;48.774;8.732;2023-05-10T08:59:13;20.70;97.90
8002;DHT22;4046;48.774;8.732;2023-05-10T09:01:40;20.80;97.90
8002;DHT22;4046;48.774;8.732;2023-05-10T09:04:08;20.80;97.80
8002;DHT22;4046;48.774;8.732;2023-05-10T09:06:35;20.80;97.90
8002;DHT22;4046;48.774;8.732;2023-05-10T09:09:01;20.80;97.80
8002;DHT22;4046;48.774;8.732;2023-05-10T09:11:27;20.80;97.80
8002;DHT22;4046;48.774;8.732;2023-05-10T09:13:55;20.80;97.80
8002;DHT22;4046;48.774;8.732;2023-05-10T09:16:23;20.80;97.80
8002;DHT22;4046;48.774;8.732;2023-05-10T09:18:49;20.80;97.80
8002;DHT22;4046;48.774;8.732;2023-05-10T09:21:15;20.70;97.80
8002;DHT22;4046;48.774;8.732;2023-05-10T09:23:45;20.70;97.80
8002;DHT22;4046;48.774;8.732;2023-05-10T09:26:12;20.70;97.80
8002;DHT22;4046;48.774;8.732;2023-05-10T09:28:56;20.70;97.80
8002;DHT22;4046;48.774;8.732;2023-05-10T09:31:22;20.70;97.80
8002;DHT22;4046;48.774;8.732;2023-05-10T09:33:49;20.70;97.80
8002;DHT22;4046;48.774;8.732;2023-05-10T09:36:16;20.80;97.80
8002;DHT22;4046;48.774;8.732;2023-05-10T09:38:47;20.80;97.80
8002;DHT22;4046;48.774;8.732;2023-05-10T09:41:21;20.80;97.70
8002;DHT22;4046;48.774;8.732;2023-05-10T09:43:48;20.80;97.70
8002;DHT22;4046;48.774;8.732;2023-05-10T09:46:16;20.90;97.70
8002;DHT22;4046;48.774;8.732;2023-05-10T09:48:44;20.90;97.70
8002;DHT22;4046;48.774;8.732;2023-05-10T09:51:16;20.90;97.70
8002;DHT22;4046;48.774;8.732;2023-05-10T09:53:44;20.90;97.70
8002;DHT22;4046;48.774;8.732;2023-05-10T09:56:10;20.90;97.70
8002;DHT22;4046;48.774;8.732;2023-05-10T09:58:37;20.90;97.60
8002;DHT22;4046;48.774;8.732;2023-05-10T10:01:11;20.90;97.60
8002;DHT22;4046;48.774;8.732;2023-05-10T10:03:42;20.80;97.60
8002;DHT22;4046;48.774;8.732;2023-05-10T10:06:09;20.80;97.70
8002;DHT22;4046;48.774;8.732;2023-05-10T10:08:36;20.70;97.70
8002;DHT22;4046;48.774;8.732;2023-05-10T10:11:02;20.70;97.70
8002;DHT22;4046;48.774;8.732;2023-05-10T10:13:29;20.60;97.70
8002;DHT22;4046;48.774;8.732;2023-05-10T10:15:55;20.60;97.80
8002;DHT22;4046;48.774;8.732;2023-05-10T10:18:21;20.50;98.10
8002;DHT22;4046;48.774;8.732;2023-05-10T10:20:54;20.50;97.80
8002;DHT22;4046;48.774;8.732;2023-05-10T10:23:20;20.50;97.80
8002;DHT22;4046;48.774;8.732;2023-05-10T10:25:46;20.50;97.90
8002;DHT22;4046;48.774;8.732;2023-05-10T10:31:13;20.40;97.80
8002;DHT22;4046;48.774;8.732;2023-05-10T10:33:57;20.40;97.90
8002;DHT22;4046;48.774;8.732;2023-05-10T10:36:25;20.40;97.90
8002;DHT22;4046;48.774;8.732;2023-05-10T10:39:08;20.40;97.90
8002;DHT22;4046;48.774;8.732;2023-05-10T10:41:56;20.40;97.90
8002;DHT22;4046;48.774;8.732;2023-05-10T10:44:23;20.40;97.90
8002;DHT22;4046;48.774;8.732;2023-05-10T10:47:03;20.40;97.90
8002;DHT22;4046;48.774;8.732;2023-05-10T10:49:42;20.40;97.90
8002;DHT22;4046;48.774;8.732;2023-05-10T10:52:34;20.30;97.90
8002;DHT22;4046;48.774;8.732;2023-05-10T10:55:12;20.40;97.90
8002;DHT22;4046;48.774;8.732;2023-05-10T10:57:51;20.40;97.90
8002;DHT22;4046;48.774;8.732;2023-05-10T11:00:25;20.40;97.90
8002;DHT22;4046;48.774;8.732;2023-05-10T11:05:43;20.30;97.90
8002;DHT22;4046;48.774;8.732;2023-05-10T11:08:18;20.30;97.90
8002;DHT22;4046;48.774;8.732;2023-05-10T11:11:14;20.30;97.90
8002;DHT22;4046;48.774;8.732;2023-05-10T11:13:45;20.30;97.90
8002;DHT22;4046;48.774;8.732;2023-05-10T11:16:20;20.30;97.80
8002;DHT22;4046;48.774;8.732;2023-05-10T11:19:03;20.30;97.90
8002;DHT22;4046;48.774;8.732;2023-05-10T11:21:34;20.30;97.80
8002;DHT22;4046;48.774;8.732;2023-05-10T11:24:13;20.30;97.90
8002;DHT22;4046;48.774;8.732;2023-05-10T11:26:40;20.30;97.90
8002;DHT22;4046;48.774;8.732;2023-05-10T11:29:07;20.30;97.80
8002;DHT22;4046;48.774;8.732;2023-05-10T11:31:33;20.30;97.80
8002;DHT22;4046;48.774;8.732;2023-05-10T11:34:00;20.30;97.80
8002;DHT22;4046;48.774;8.732;2023-05-10T11:36:29;20.30;97.80
8002;DHT22;4046;48.774;8.732;2023-05-10T11:38:56;20.30;97.80
8002;DHT22;4046;48.774;8.732;2023-05-10T11:41:23;20.40;97.90
8002;DHT22;4046;48.774;8.732;2023-05-10T11:43:51;20.40;97.80
8002;DHT22;4046;48.774;8.732;2023-05-10T11:46:19;20.40;97.80
8002;DHT22;4046;48.774;8.732;2023-05-10T11:48:49;20.40;97.80
8002;DHT22;4046;48.774;8.732;2023-05-10T11:51:20;20.40;97.70
8002;DHT22;4046;48.774;8.732;2023-05-10T11:53:46;20.50;97.70
8002;DHT22;4046;48.774;8.732;2023-05-10T11:56:13;20.50;97.70
8002;DHT22;4046;48.774;8.732;2023-05-10T11:58:39;20.50;97.70
8002;DHT22;4046;48.774;8.732;2023-05-10T12:01:07;20.60;97.70
8002;DHT22;4046;48.774;8.732;2023-05-10T12:03:34;20.60;97.70
8002;DHT22;4046;48.774;8.732;2023-05-10T12:06:01;20.60;97.60
8002;DHT22;4046;48.774;8.732;2023-05-10T12:08:29;20.60;97.60
8002;DHT22;4046;48.774;8.732;2023-05-10T12:11:06;20.60;97.60
8002;DHT22;4046;48.774;8.732;2023-05-10T12:13:38;20.60;97.50
8002;DHT22;4046;48.774;8.732;2023-05-10T12:16:16;20.60;97.50
8002;DHT22;4046;48.774;8.732;2023-05-10T12:18:43;20.60;97.50
8002;DHT22;4046;48.774;8.732;2023-05-10T12:21:13;20.60;97.50
8002;DHT22;4046;48.774;8.732;2023-05-10T12:23:41;20.60;97.50
8002;DHT22;4046;48.774;8.732;2023-05-10T12:26:10;20.60;97.60
8002;DHT22;4046;48.774;8.732;2023-05-10T12:28:37;20.60;97.60
8002;DHT22;4046;48.774;8.732;2023-05-10T12:31:05;20.60;97.60
8002;DHT22;4046;48.774;8.732;2023-05-10T12:33:42;20.60;97.60
8002;DHT22;4046;48.774;8.732;2023-05-10T12:36:13;20.60;97.60
8002;DHT22;4046;48.774;8.732;2023-05-10T12:38:41;20.60;97.60
8002;DHT22;4046;48.774;8.732;2023-05-10T12:41:12;20.60;97.50
8002;DHT22;4046;48.774;8.732;2023-05-10T12:43:39;20.60;97.60
8002;DHT22;4046;48.774;8.732;2023-05-10T12:46:13;20.60;97.60
8002;DHT22;4046;48.774;8.732;2023-05-10T12:48:41;20.50;97.50
8002;DHT22;4046;48.774;8.732;2023-05-10T12:51:08;20.60;97.60
8002;DHT22;4046;48.774;8.732;2023-05-10T12:53:39;20.50;97.50
8002;DHT22;4046;48.774;8.732;2023-05-10T12:56:05;20.50;97.50
8002;DHT22;4046;48.774;8.732;2023-05-10T12:58:32;20.50;97.50
8002;DHT22;4046;48.774;8.732;2023-05-10T13:00:59;20.50;97.50
8002;DHT22;4046;48.774;8.732;2023-05-10T13:03:26;20.50;97.50
8002;DHT22;4046;48.774;8.732;2023-05-10T13:05:52;20.60;97.90
8002;DHT22;4046;48.774;8.732;2023-05-10T13:08:18;20.60;97.50
8002;DHT22;4046;48.774;8.732;2023-05-10T13:10:44;20.60;97.50
8002;DHT22;4046;48.774;8.732;2023-05-10T13:13:11;20.60;97.50
8002;DHT22;4046;48.774;8.732;2023-05-10T13:15:37;20.60;97.50
8002;DHT22;4046;48.774;8.732;2023-05-10T13:18:03;20.60;97.50
8002;DHT22;4046;48.774;8.732;2023-05-10T13:20:29;20.60;97.50
8002;DHT22;4046;48.774;8.732;2023-05-10T13:22:55;20.60;97.50
8002;DHT22;4046;48.774;8.732;2023-05-10T13:25:21;20.60;97.50
8002;DHT22;4046;48.774;8.732;2023-05-10T13:27:48;20.60;97.50
8002;DHT22;4046;48.774;8.732;2023-05-10T13:30:14;20.60;97.50
8002;DHT22;4046;48.774;8.732;2023-05-10T13:32:40;20.60;97.50
8002;DHT22;4046;48.774;8.732;2023-05-10T13:35:07;20.60;97.50
8002;DHT22;4046;48.774;8.732;2023-05-10T13:37:33;20.60;97.50
8002;DHT22;4046;48.774;8.732;2023-05-10T13:40:03;20.60;97.50
8002;DHT22;4046;48.774;8.732;2023-05-10T13:42:30;20.60;97.40
8002;DHT22;4046;48.774;8.732;2023-05-10T13:44:57;20.60;97.60
8002;DHT22;4046;48.774;8.732;2023-05-10T13:47:23;20.60;97.50
8002;DHT22;4046;48.774;8.732;2023-05-10T13:49:50;20.60;97.40
8002;DHT22;4046;48.774;8.732;2023-05-10T13:52:16;20.60;97.40
8002;DHT22;4046;48.774;8.732;2023-05-10T13:54:42;20.60;97.40
8002;DHT22;4046;48.774;8.732;2023-05-10T13:57:08;20.60;97.40
8002;DHT22;4046;48.774;8.732;2023-05-10T13:59:34;20.60;97.40
8002;DHT22;4046;48.774;8.732;2023-05-10T14:02:01;20.50;97.40
8002;DHT22;4046;48.774;8.732;2023-05-10T14:04:30;20.50;97.50
8002;DHT22;4046;48.774;8.732;2023-05-10T14:06:56;20.50;97.50
8002;DHT22;4046;48.774;8.732;2023-05-10T14:09:22;20.50;97.50
8002;DHT22;4046;48.774;8.732;2023-05-10T14:11:48;20.50;97.50
8002;DHT22;4046;48.774;8.732;2023-05-10T14:14:15;20.50;97.50
8002;DHT22;4046;48.774;8.732;2023-05-10T14:16:45;20.50;97.50
8002;DHT22;4046;48.774;8.732;2023-05-10T14:19:11;20.40;97.50
8002;DHT22;4046;48.774;8.732;2023-05-10T14:21:38;20.50;97.50
8002;DHT22;4046;48.774;8.732;2023-05-10T14:24:04;20.40;97.50
8002;DHT22;4046;48.774;8.732;2023-05-10T14:26:30;20.50;97.50
8002;DHT22;4046;48.774;8.732;2023-05-10T14:28:57;20.50;97.50
8002;DHT22;4046;48.774;8.732;2023-05-10T14:31:23;20.50;97.50
8002;DHT22;4046;48.774;8.732;2023-05-10T14:33:51;20.50;97.50
8002;DHT22;4046;48.774;8.732;2023-05-10T14:36:17;20.50;97.50
8002;DHT22;4046;48.774;8.732;2023-05-10T14:38:43;20.50;97.50
8002;DHT22;4046;48.774;8.732;2023-05-10T14:41:10;20.50;97.50
8002;DHT22;4046;48.774;8.732;2023-05-10T14:43:40;20.50;97.50
8002;DHT22;4046;48.774;8.732;2023-05-10T14:46:07;20.40;97.40
8002;DHT22;4046;48.774;8.732;2023-05-10T14:48:33;20.50;97.50
8002;DHT22;4046;48.774;8.732;2023-05-10T14:50:59;20.50;97.50
8002;DHT22;4046;48.774;8.732;2023-05-10T14:53:25;20.50;97.50
8002;DHT22;4046;48.774;8.732;2023-05-10T14:55:51;20.50;97.50
8002;DHT22;4046;48.774;8.732;2023-05-10T14:58:18;20.50;97.50
8002;DHT22;4046;48.774;8.732;2023-05-10T15:00:44;20.50;97.50
8002;DHT22;4046;48.774;8.732;2023-05-10T15:03:10;20.50;97.50
8002;DHT22;4046;48.774;8.732;2023-05-10T15:05:36;20.50;97.50
8002;DHT22;4046;48.774;8.732;2023-05-10T15:08:04;20.50;97.50
8002;DHT22;4046;48.774;8.732;2023-05-10T15:10:31;20.50;97.40
8002;DHT22;4046;48.774;8.732;2023-05-10T15:12:59;20.50;97.40
8002;DHT22;4046;48.774;8.732;2023-05-10T15:15:25;20.50;97.50
8002;DHT22;4046;48.774;8.732;2023-05-10T15:17:51;20.50;97.50
8002;DHT22;4046;48.774;8.732;2023-05-10T15:20:18;20.50;97.50
8002;DHT22;4046;48.774;8.732;2023-05-10T15:22:44;20.50;97.50
8002;DHT22;4046;48.774;8.732;2023-05-10T15:25:10;20.50;97.40
8002;DHT22;4046;48.774;8.732;2023-05-10T15:27:36;20.50;97.40
8002;DHT22;4046;48.774;8.732;2023-05-10T15:30:03;20.50;97.40
8002;DHT22;4046;48.774;8.732;2023-05-10T15:32:29;20.50;97.40
8002;DHT22;4046;48.774;8.732;2023-05-10T15:34:55;20.40;97.40
8002;DHT22;4046;48.774;8.732;2023-05-10T15:37:22;20.40;97.40
8002;DHT22;4046;48.774;8.732;2023-05-10T15:39:49;20.40;97.40
8002;DHT22;4046;48.774;8.732;2023-05-10T15:42:16;20.40;97.40
8002;DHT22;4046;48.774;8.732;2023-05-10T15:44:42;20.40;97.40
8002;DHT22;4046;48.774;8.732;2023-05-10T15:47:10;20.40;97.40
8002;DHT22;4046;48.774;8.732;2023-05-10T15:49:36;20.40;97.40
8002;DHT22;4046;48.774;8.732;2023-05-10T15:52:02;20.40;97.50
8002;DHT22;4046;48.774;8.732;2023-05-10T15:54:28;20.40;97.50
8002;DHT22;4046;48.774;8.732;2023-05-10T15:56:55;20.30;97.40
8002;DHT22;4046;48.774;8.732;2023-05-10T15:59:21;20.30;97.50
8002;DHT22;4046;48.774;8.732;2023-05-10T16:01:47;20.30;97.50
8002;DHT22;4046;48.774;8.732;2023-05-10T16:04:14;20.30;97.50
8002;DHT22;4046;48.774;8.732;2023-05-10T16:06:41;20.30;97.50
8002;DHT22;4046;48.774;8.732;2023-05-10T16:09:07;20.30;97.50
8002;DHT22;4046;48.774;8.732;2023-05-10T16:11:33;20.30;97.50
8002;DHT22;4046;48.774;8.732;2023-05-10T16:13:59;20.30;97.50
8002;DHT22;4046;48.774;8.732;2023-05-10T16:16:26;20.30;97.50
8002;DHT22;4046;48.774;8.732;2023-05-10T16:18:52;20.30;97.50
8002;DHT22;4046;48.774;8.732;2023-05-10T16:21:18;20.30;97.50
8002;DHT22;4046;48.774;8.732;2023-05-10T16:23:44;20.30;97.50
8002;DHT22;4046;48.774;8.732;2023-05-10T16:26:11;20.30;97.50